Thursday, June 30, 2016
23:02 UTC
  |  Log In   |  Register Free
Airport Search:

Ellington Airport
(KEFD)

FAA data valid effective May 26 2016 - Jul 21 2016 (unless otherwise noted).

 
 
 
 
 
 
 
 
 
 
 
 
 
 
Current Aviation Weather for KEFD

Weather Summary


The most recent METAR observation for EFD was updated at: 12:50 UTC
METAR for KEFD is not available. Closest METAR is for KHOU
KEFD  (most recent observation was updatred at 30:20 UTC)
302050Z 07011KT 10SM FEW025 SCT038 SCT250 34/21 A2994

KHOU  (6.7 nm SE)   (most recent observation was updated at 30:22 UTC)
302253Z 12006KT 10SM SCT055 SCT110 BKN250 33/22 A2991 RMK AO2 SLP133 T03330222

KLVJ  (6.8 nm NE)   (most recent observation was updated at 30:22 UTC)
302253Z AUTO 11010KT 10SM CLR 34/22 A2994 RMK AO2 SLP136 T03390217

TAF for KEFD is not available.
KEFD
302000Z 3020/0202 10006KT 9999 SCT040 QNH2988INS BECMG 0103/0104 17006KT 9999 BKN025 QNH2991INS BECMG 0117/0118 19012KT 9999 BKN030 QNH2995INS TX35/3022Z TN24/0110Z

KHOU  (6.7 nm SE)   (most recent observation was updatred at 30:21 UTC)
AMD 302136Z 3022/0118 09008KT P6SM SCT050 BKN250 FM302230 13009KT P6SM SCT050 SCT250 FM010200 VRB03KT P6SM SCT250 FM011500 11004KT P6SM SCT100


KIAH  (24.6 nm SE)   (most recent observation was updatred at 30:20 UTC)
AMD 302035Z 3021/0124 07007KT P6SM SCT040 SCT250 FM010200 13005KT P6SM FEW040 SCT250 FM010600 VRB03KT P6SM SKC FM011600 10004KT P6SM FEW035 SCT250
GlobalAir.com is loading additional information.
 Current Weather at EFD
93.0 F° (34.0 C°)

East winds at 12.7 mph
Pressure:
29.94 in
Humidity:
47%
Wind:
East at 12.7 mph
Dew Point:
69.8 F° (21.0 C°)
Visibility:
10.00 mi
EFD NOAA Radar




Find All Airport Services Find A Hotel Find A Rental Car Find A Golf Course Find A Restaurant $100 Hamburger



Airport Weather Forecast for KEFD

Translated METAR for KEFD (2050 UTC)
METAR:
KEFD 302050Z 07011KT 10SM FEW025 SCT038 SCT250 34/21 A2994
Conditions at:
KEFD (Ellington, TX) observed 2050 UTC 30 June 2016
Temperature:
34°C (93.2°F)
Dewpoint:
21°C (69.8°F) [RH = 46.7]
Pressure:
29.94 inches Hg (1013.9 mb)
Winds:
from the ENE (070 degrees) at 12.7 mph (11 knots: 5.7 m/s)
Visibility:
10 mile(s)
Ceiling:
at least 12,000 feet AGL
Clouds:
Few Clouds at 2,500 feet AGL
Scattered Clouds at 3,800 feet AGL
Scattered Clouds at 25,000 feet AGL
Remarks:

Translated TAF for KEFD (Ellington, TX) (2000 UTC)
TAF text:
KEFD 302000Z 3020/0202 10006KT 9999 SCT040 QNH2988INS BECMG 0103/0104 17006KT 9999 BKN025 QNH2991INS BECMG 0117/0118 19012KT 9999 BKN030 QNH2995INS TX35/3022Z TN24/0110Z
Forecast period:
Thursday Jun 30 2016 20:00 UTC - Thursday Jun 30 2016 02:00 UTC
Forecast type:
FROM: standard forecast or significant change
Winds:
from the S (190 degrees) at 13.8 mph (12 knots: 6.2 m/s)
Visibility:
Ceiling:
at least 12,000 feet AGL
2,500 feet AGL
3,000 feet AGL
Clouds:
Scattered Clouds at 4,000 feet AGL
Broken Cloud Cover at 2,500 feet AGL
Broken Cloud Cover at 3,000 feet AGL
Weather:
no significant weather observed at this time
FBO's on the Field
FBO Company Facility Photos Services Transportation Aviation Fuel Prices: Prices include tax
Catering Weather Repair Courtesy Rental Type 100LL JetA JetA+ MOGAS 8087
 
Signature Flight Support - EFD

This FBO has not yet been rated
FS:Independent
Last Updated: Jun-30
Login to update fuel prices
SS:
Contact Signature Flight Support - EFDMore FBO Information
 
Add another FBO Facility Photos Catering Weather Repair Courtesy Rental Type 100LL JetA JetA+ MOGAS 8087
Services Transportation Aviation Fuel Prices: Prices include tax


model-print
model-print
model-print
model-print